This is the latest recevied weather packets stored in our database for station/object SP2WPY-13. If no packets are shown the sender has not sent any weather packets the latest 10 day(s).
| Time | Temp. | Humidity | Pressure | Rain* | Wind** | Luminosity | Snow |
|---|---|---|---|---|---|---|---|
| 1777823802 | 25.56° C | 26% | 1012.7 hPa | - | - | - | - |
| 1777823482 | 25° C | 27% | 1012.7 hPa | - | - | - | - |
| 1777823207 | 25° C | 27% | 1012.7 hPa | - | - | - | - |
| 1777822887 | 24.44° C | 28% | 1012.7 hPa | - | - | - | - |
| 1777822567 | 23.89° C | 28% | 1012.6 hPa | - | - | - | - |
| 1777822292 | 23.89° C | 28% | 1012.6 hPa | - | - | - | - |
| 1777821973 | 24.44° C | 27% | 1012.7 hPa | - | - | - | - |
| 1777821699 | 25° C | 26% | 1012.7 hPa | - | - | - | - |
| 1777821378 | 25.56° C | 26% | 1012.6 hPa | - | - | - | - |
| 1777821104 | 25° C | 28% | 1012.7 hPa | - | - | - | - |
| 1777820783 | 24.44° C | 27% | 1012.5 hPa | - | - | - | - |
| 1777820464 | 25° C | 26% | 1012.7 hPa | - | - | - | - |
| 1777820190 | 25° C | 26% | 1012.6 hPa | - | - | - | - |
| 1777819871 | 26.11° C | 24% | 1012.5 hPa | - | - | - | - |
| 1777819596 | 26.67° C | 24% | 1012.6 hPa | - | - | - | - |
| 1777819277 | 27.22° C | 23% | 1012.6 hPa | - | - | - | - |
| 1777819002 | 27.78° C | 23% | 1012.7 hPa | - | - | - | - |
| 1777818682 | 27.22° C | 23% | 1012.7 hPa | - | - | - | - |
| 1777818363 | 27.78° C | 23% | 1012.7 hPa | - | - | - | - |
| 1777818089 | 27.78° C | 22% | 1012.8 hPa | - | - | - | - |
| 1777817769 | 27.22° C | 23% | 1012.8 hPa | - | - | - | - |
| 1777817497 | 27.22° C | 23% | 1012.8 hPa | - | - | - | - |
| 1777817175 | 28.33° C | 21% | 1012.9 hPa | - | - | - | - |
| 1777816901 | 30° C | 15% | 1012.9 hPa | - | - | - | - |
| 1777816582 | 30° C | 15% | 1012.9 hPa | - | - | - | - |
* Rain since midnight (hover to see other rain measurements)
** Current wind speed in m/s (hover to see current wind gust speed)